createdAt,value
2018-03-27T00:00:32.919Z,99725.42
2018-03-27T00:02:59.325Z,99719.47
2018-03-27T00:05:26.291Z,99723.06
2018-03-27T00:07:53.377Z,99726.27
2018-03-27T00:10:19.731Z,99726.27
2018-03-27T00:12:46.064Z,99723.70
2018-03-27T00:15:12.355Z,99724.97
2018-03-27T00:17:38.641Z,99724.63
2018-03-27T00:20:04.885Z,99727.36
2018-03-27T00:22:31.907Z,99737.19
2018-03-27T00:24:58.189Z,99731.34
2018-03-27T00:27:43.314Z,99730.63
2018-03-27T00:30:28.412Z,99733.20
2018-03-27T00:33:13.393Z,99738.78
2018-03-27T00:35:58.275Z,99740.30
2018-03-27T00:38:43.366Z,99745.02
2018-03-27T00:41:18.466Z,99749.41
2018-03-27T00:43:45.068Z,99749.45
2018-03-27T00:46:11.338Z,99748.80
2018-03-27T00:48:37.660Z,99754.05
2018-03-27T00:51:04.776Z,99751.91
2018-03-27T00:53:31.076Z,99749.86
2018-03-27T00:55:57.436Z,99752.17
2018-03-27T00:58:23.788Z,99755.55
2018-03-27T01:00:50.168Z,99756.47
2018-03-27T01:03:16.428Z,99756.53
2018-03-27T01:05:42.776Z,99751.19
2018-03-27T01:08:09.812Z,99758.14
2018-03-27T01:10:36.207Z,99756.03
2018-03-27T01:13:02.507Z,99745.27
2018-03-27T01:15:28.834Z,99751.16
2018-03-27T01:17:55.883Z,99754.29
2018-03-27T01:20:22.955Z,99755.52
2018-03-27T01:22:49.226Z,99750.31
2018-03-27T01:25:15.700Z,99753.14
2018-03-27T01:27:42.741Z,99758.34
2018-03-27T01:30:09.857Z,99752.01
2018-03-27T01:32:36.916Z,99749.44
2018-03-27T01:35:03.189Z,99752.88
2018-03-27T01:37:29.664Z,99748.63
2018-03-27T01:39:55.910Z,99746.30
2018-03-27T01:42:22.256Z,99746.81
2018-03-27T01:44:49.264Z,99744.86
2018-03-27T01:47:15.575Z,99741.13
2018-03-27T01:49:41.891Z,99750.63
2018-03-27T01:52:08.264Z,99747.63
2018-03-27T01:54:35.324Z,99753.25
2018-03-27T01:57:01.711Z,99743.23
2018-03-27T01:59:27.997Z,99749.56
2018-03-27T02:01:55.094Z,99747.94
2018-03-27T02:04:21.393Z,99752.19
2018-03-27T02:06:48.473Z,99745.45
2018-03-27T02:09:14.777Z,99754.89
2018-03-27T02:11:47.971Z,99749.47
2018-03-27T02:14:21.082Z,99750.77
2018-03-27T02:16:53.492Z,99751.77
2018-03-27T02:19:25.915Z,99747.30
2018-03-27T02:21:52.129Z,99744.03
2018-03-27T02:24:20.857Z,99744.50
2018-03-27T02:26:47.180Z,99748.40
2018-03-27T02:29:13.491Z,99750.77
2018-03-27T02:31:39.779Z,99754.94
2018-03-27T02:34:06.072Z,99752.27
2018-03-27T02:36:32.392Z,99754.36
2018-03-27T02:38:59.078Z,99751.81
2018-03-27T02:41:25.367Z,99757.66
2018-03-27T02:43:51.691Z,99754.97
2018-03-27T02:46:18.023Z,99761.24
2018-03-27T02:48:44.303Z,99769.00
2018-03-27T02:51:17.916Z,99768.68
2018-03-27T02:53:44.236Z,99770.88
2018-03-27T02:56:10.564Z,99773.06
2018-03-27T02:58:37.839Z,99779.74
2018-03-27T03:01:05.138Z,99780.80
2018-03-27T03:03:31.491Z,99785.42
2018-03-27T03:05:57.824Z,99780.36
2018-03-27T03:08:24.140Z,99772.99
2018-03-27T03:10:50.523Z,99772.97
2018-03-27T03:13:17.558Z,99775.78
2018-03-27T03:15:43.830Z,99782.83
2018-03-27T03:18:10.119Z,99782.16
2018-03-27T03:20:36.418Z,99792.25
2018-03-27T03:23:03.467Z,99788.94
2018-03-27T03:25:29.796Z,99791.81
2018-03-27T03:27:56.121Z,99791.13
2018-03-27T03:30:22.698Z,99788.03
2018-03-27T03:32:49.782Z,99790.08
2018-03-27T03:35:16.082Z,99797.03
2018-03-27T03:37:43.164Z,99798.47
2018-03-27T03:40:09.508Z,99799.09
2018-03-27T03:42:35.787Z,99796.81
2018-03-27T03:45:02.092Z,99796.78
2018-03-27T03:47:29.129Z,99790.11
2018-03-27T03:49:55.446Z,99796.79
2018-03-27T03:52:21.835Z,99792.70
2018-03-27T03:54:48.848Z,99798.80
2018-03-27T03:57:15.256Z,99804.60
2018-03-27T03:59:41.597Z,99798.82
2018-03-27T04:02:07.901Z,99802.89
2018-03-27T04:04:34.241Z,99810.65
2018-03-27T04:07:00.591Z,99804.52
2018-03-27T04:09:26.903Z,99810.68
2018-03-27T04:11:53.207Z,99811.77
2018-03-27T04:14:20.281Z,99814.15
2018-03-27T04:16:46.640Z,99808.39
2018-03-27T04:19:13.003Z,99814.63
2018-03-27T04:21:39.307Z,99816.78
2018-03-27T04:24:05.661Z,99816.30
2018-03-27T04:26:33.538Z,99818.75
2018-03-27T04:28:59.877Z,99815.77
2018-03-27T04:31:27.875Z,99823.69
2018-03-27T04:33:54.353Z,99821.48
2018-03-27T04:36:20.645Z,99824.12
2018-03-27T04:38:46.952Z,99820.92
2018-03-27T04:41:13.997Z,99827.20
2018-03-27T04:43:41.115Z,99824.63
2018-03-27T04:46:07.387Z,99831.92
2018-03-27T04:48:34.449Z,99832.55
2018-03-27T04:51:00.837Z,99826.87
2018-03-27T04:53:27.160Z,99826.13
2018-03-27T04:55:53.491Z,99832.93
2018-03-27T04:58:19.828Z,99832.69
2018-03-27T05:00:46.184Z,99830.52
2018-03-27T05:03:14.078Z,99833.84
2018-03-27T05:05:40.424Z,99820.31
2018-03-27T05:08:06.760Z,99824.08
2018-03-27T05:10:33.078Z,99823.36
2018-03-27T05:12:59.378Z,99830.36
2018-03-27T05:15:26.460Z,99826.05
2018-03-27T05:17:52.710Z,99826.67
2018-03-27T05:20:19.058Z,99822.61
2018-03-27T05:22:45.376Z,99830.39
2018-03-27T05:25:11.714Z,99833.97
2018-03-27T05:27:38.345Z,99824.98
2018-03-27T05:30:04.676Z,99826.22
2018-03-27T05:32:31.047Z,99819.95
2018-03-27T05:34:57.341Z,99822.62
2018-03-27T05:37:23.645Z,99821.16
2018-03-27T05:39:50.987Z,99820.05
2018-03-27T05:42:17.592Z,99822.52
2018-03-27T05:44:44.645Z,99816.81
2018-03-27T05:47:11.637Z,99817.28
2018-03-27T05:49:37.984Z,99822.53
2018-03-27T05:52:04.289Z,99824.78
2018-03-27T05:54:30.587Z,99829.17
2018-03-27T05:56:57.633Z,99827.73
2018-03-27T05:59:24.642Z,99834.06
2018-03-27T06:01:51.315Z,99825.92
2018-03-27T06:04:25.314Z,99832.66
2018-03-27T06:06:51.688Z,99835.56
2018-03-27T06:09:17.991Z,99834.58
2018-03-27T06:11:44.320Z,99837.06
2018-03-27T06:14:11.359Z,99827.80
2018-03-27T06:16:37.700Z,99832.08
2018-03-27T06:19:04.928Z,99834.64
2018-03-27T06:21:31.240Z,99839.09
2018-03-27T06:23:57.504Z,99839.25
2018-03-27T06:26:23.774Z,99832.89
2018-03-27T06:28:50.074Z,99836.77
2018-03-27T06:31:17.185Z,99835.60
2018-03-27T06:33:43.500Z,99832.73
2018-03-27T06:36:09.796Z,99832.30
2018-03-27T06:38:36.867Z,99840.78
2018-03-27T06:41:03.274Z,99842.97
2018-03-27T06:43:29.581Z,99836.28
2018-03-27T06:45:55.930Z,99836.67
2018-03-27T06:48:23.026Z,99833.70
2018-03-27T06:50:49.356Z,99834.41
2018-03-27T06:53:15.666Z,99835.92
2018-03-27T06:55:41.918Z,99833.45
2018-03-27T06:58:08.250Z,99837.48
2018-03-27T07:00:34.566Z,99833.97
2018-03-27T07:03:00.943Z,99828.91
2018-03-27T07:05:27.295Z,99834.06
2018-03-27T07:07:54.378Z,99827.73
2018-03-27T07:10:20.722Z,99833.55
2018-03-27T07:12:47.052Z,99830.28
2018-03-27T07:15:13.451Z,99835.23
2018-03-27T07:17:40.536Z,99835.86
2018-03-27T07:20:06.841Z,99829.16
2018-03-27T07:22:34.111Z,99831.06
2018-03-27T07:25:00.489Z,99840.55
2018-03-27T07:27:26.745Z,99835.91
2018-03-27T07:29:53.047Z,99845.78
2018-03-27T07:32:19.335Z,99842.86
2018-03-27T07:34:45.660Z,99839.13
2018-03-27T07:37:12.005Z,99835.06
2018-03-27T07:39:38.296Z,99840.27
2018-03-27T07:42:05.335Z,99843.16
2018-03-27T07:44:32.430Z,99833.27
2018-03-27T07:46:58.729Z,99832.72
2018-03-27T07:49:25.762Z,99839.67
2018-03-27T07:51:52.916Z,99841.70
2018-03-27T07:54:19.222Z,99837.66
2018-03-27T07:56:45.517Z,99843.64
2018-03-27T07:59:11.826Z,99838.97
2018-03-27T08:01:38.136Z,99841.61
2018-03-27T08:04:05.295Z,99840.31
2018-03-27T08:06:32.375Z,99832.12
2018-03-27T08:08:58.813Z,99835.58
2018-03-27T08:11:25.211Z,99833.52
2018-03-27T08:13:52.251Z,99834.41
2018-03-27T08:16:20.220Z,99835.67
2018-03-27T08:18:47.248Z,99832.69
2018-03-27T08:21:13.580Z,99826.02
2018-03-27T08:23:39.898Z,99834.27
2018-03-27T08:26:06.231Z,99829.43
2018-03-27T08:28:32.595Z,99835.19
2018-03-27T08:30:59.602Z,99831.81
2018-03-27T08:33:26.044Z,99834.27
2018-03-27T08:35:52.331Z,99830.84
2018-03-27T08:38:18.637Z,99841.02
2018-03-27T08:40:45.746Z,99833.08
2018-03-27T08:43:12.092Z,99835.30
2018-03-27T08:45:38.371Z,99835.90
2018-03-27T08:48:04.733Z,99839.18
2018-03-27T08:50:31.044Z,99831.30
2018-03-27T08:52:57.363Z,99837.41
2018-03-27T08:55:23.673Z,99842.16
2018-03-27T08:57:50.707Z,99837.12
2018-03-27T09:00:17.061Z,99833.37
2018-03-27T09:02:44.154Z,99832.42
2018-03-27T09:05:10.478Z,99830.17
2018-03-27T09:07:36.818Z,99821.88
2018-03-27T09:10:03.106Z,99820.80
2018-03-27T09:12:29.402Z,99815.47
2018-03-27T09:14:55.731Z,99816.57
2018-03-27T09:17:22.139Z,99807.57
2018-03-27T09:19:48.454Z,99805.23
2018-03-27T09:22:14.797Z,99808.60
2018-03-27T09:24:41.140Z,99807.06
2018-03-27T09:27:07.549Z,99812.30
2018-03-27T09:29:33.820Z,99810.91
2018-03-27T09:32:00.495Z,99817.27
2018-03-27T09:34:27.551Z,99804.69
2018-03-27T09:36:53.829Z,99808.91
2018-03-27T09:39:21.131Z,99800.80
2018-03-27T09:41:47.397Z,99790.88
2018-03-27T09:44:13.758Z,99799.20
2018-03-27T09:46:40.080Z,99799.72
2018-03-27T09:49:06.584Z,99795.42
2018-03-27T09:51:32.801Z,99797.28
2018-03-27T09:53:59.201Z,99791.38
2018-03-27T09:56:26.260Z,99792.95
2018-03-27T09:58:53.346Z,99794.61
2018-03-27T10:01:25.823Z,99795.00
2018-03-27T10:03:52.140Z,99801.63
2018-03-27T10:06:18.478Z,99794.26
2018-03-27T10:08:45.469Z,99792.67
2018-03-27T10:11:11.923Z,99789.13
2018-03-27T10:13:39.678Z,99778.97
2018-03-27T10:16:06.848Z,99782.13
2018-03-27T10:18:33.894Z,99779.23
2018-03-27T10:21:00.186Z,99770.53
2018-03-27T10:23:26.488Z,99772.80
2018-03-27T10:25:52.826Z,99765.03
2018-03-27T10:28:19.088Z,99768.98
2018-03-27T10:30:45.388Z,99763.67
2018-03-27T10:33:11.754Z,99772.87
2018-03-27T10:35:38.142Z,99761.99
2018-03-27T10:38:04.465Z,99761.98
2018-03-27T10:40:30.770Z,99764.87
2018-03-27T10:42:57.072Z,99769.23
2018-03-27T10:45:23.412Z,99760.88
2018-03-27T10:47:49.739Z,99763.06
2018-03-27T10:50:16.782Z,99754.23
2018-03-27T10:52:43.077Z,99754.84
2018-03-27T10:55:09.336Z,99754.34
2018-03-27T10:57:37.102Z,99751.97
2018-03-27T11:00:03.404Z,99753.95
2018-03-27T11:02:29.739Z,99749.87
2018-03-27T11:04:56.030Z,99742.28
2018-03-27T11:07:23.122Z,99741.56
2018-03-27T11:09:49.372Z,99753.88
2018-03-27T11:12:15.670Z,99747.98
2018-03-27T11:14:42.011Z,99748.64
2018-03-27T11:17:08.321Z,99747.88
2018-03-27T11:19:34.668Z,99740.30
2018-03-27T11:22:01.255Z,99743.47
2018-03-27T11:24:28.276Z,99745.02
2018-03-27T11:26:54.597Z,99737.83
2018-03-27T11:29:20.927Z,99734.58
2018-03-27T11:31:47.143Z,99732.72
2018-03-27T11:34:13.447Z,99730.17
2018-03-27T11:36:39.735Z,99732.69
2018-03-27T11:39:06.037Z,99731.40
2018-03-27T11:41:32.314Z,99738.97
2018-03-27T11:43:58.615Z,99736.53
2018-03-27T11:46:24.934Z,99734.94
2018-03-27T11:48:51.292Z,99730.66
2018-03-27T11:51:17.689Z,99724.56
2018-03-27T11:53:44.048Z,99720.56
2018-03-27T11:56:10.684Z,99715.08
2018-03-27T11:58:37.024Z,99718.07
2018-03-27T12:01:03.344Z,99722.71
2018-03-27T12:03:29.692Z,99721.88
2018-03-27T12:05:56.732Z,99714.95
2018-03-27T12:08:23.042Z,99717.20
2018-03-27T12:10:49.350Z,99714.66
2018-03-27T12:13:15.728Z,99709.92
2018-03-27T12:15:42.058Z,99704.52
2018-03-27T12:18:08.348Z,99698.19
2018-03-27T12:20:34.668Z,99692.38
2018-03-27T12:23:01.001Z,99697.58
2018-03-27T12:25:27.357Z,99692.16
2018-03-27T12:27:53.696Z,99701.58
2018-03-27T12:30:19.960Z,99700.41
2018-03-27T12:32:46.291Z,99706.22
2018-03-27T12:35:12.588Z,99694.77
2018-03-27T12:37:38.911Z,99697.64
2018-03-27T12:40:05.221Z,99698.59
2018-03-27T12:42:31.573Z,99698.58
2018-03-27T12:44:58.626Z,99693.38
2018-03-27T12:47:25.028Z,99693.53
2018-03-27T12:49:51.929Z,99696.27
2018-03-27T12:52:18.261Z,99692.66
2018-03-27T12:54:44.766Z,99684.57
2018-03-27T12:57:11.125Z,99690.16
2018-03-27T12:59:38.943Z,99682.21
2018-03-27T13:02:05.264Z,99672.27
2018-03-27T13:04:31.595Z,99672.04
2018-03-27T13:06:57.895Z,99674.08
2018-03-27T13:09:25.006Z,99667.66
2018-03-27T13:11:52.110Z,99666.36
2018-03-27T13:14:18.422Z,99659.91
2018-03-27T13:16:45.539Z,99664.47
2018-03-27T13:19:11.841Z,99664.67
2018-03-27T13:21:38.081Z,99661.10
2018-03-27T13:24:04.473Z,99660.41
2018-03-27T13:26:30.787Z,99653.10
2018-03-27T13:28:57.090Z,99656.17
2018-03-27T13:31:23.405Z,99651.20
2018-03-27T13:33:49.739Z,99659.07
2018-03-27T13:36:16.045Z,99667.08
2018-03-27T13:38:42.354Z,99653.68
2018-03-27T13:41:08.671Z,99656.20
2018-03-27T13:43:35.032Z,99656.75
2018-03-27T13:46:02.081Z,99651.98
2018-03-27T13:48:29.141Z,99645.51
2018-03-27T13:50:56.230Z,99646.03
2018-03-27T13:53:22.556Z,99648.57
2018-03-27T13:55:50.218Z,99641.86
2018-03-27T13:58:16.525Z,99632.81
2018-03-27T14:00:42.822Z,99634.84
2018-03-27T14:03:09.866Z,99633.20
2018-03-27T14:05:36.958Z,99631.75
2018-03-27T14:08:03.303Z,99625.27
2018-03-27T14:10:29.651Z,99624.17
2018-03-27T14:12:55.959Z,99626.63
2018-03-27T14:15:22.366Z,99627.16
2018-03-27T14:17:48.705Z,99623.08
2018-03-27T14:20:15.906Z,99626.13
2018-03-27T14:22:42.284Z,99638.48
2018-03-27T14:25:08.620Z,99630.20
2018-03-27T14:27:34.999Z,99629.41
2018-03-27T14:30:01.354Z,99627.97
2018-03-27T14:32:28.445Z,99619.13
2018-03-27T14:34:54.860Z,99626.61
2018-03-27T14:37:21.296Z,99625.14
2018-03-27T14:39:47.592Z,99616.48
2018-03-27T14:42:13.902Z,99608.67
2018-03-27T14:44:40.214Z,99613.09
2018-03-27T14:47:06.481Z,99606.91
2018-03-27T14:49:32.776Z,99597.86
2018-03-27T14:51:59.890Z,99597.52
2018-03-27T14:54:26.942Z,99591.97
2018-03-27T14:56:54.177Z,99584.56
2018-03-27T14:59:21.241Z,99573.13
2018-03-27T15:01:47.545Z,99584.91
2018-03-27T15:04:15.036Z,99577.77
2018-03-27T15:06:41.330Z,99563.52
2018-03-27T15:09:07.686Z,99563.00
2018-03-27T15:11:34.743Z,99558.27
2018-03-27T15:14:01.238Z,99562.74
2018-03-27T15:16:27.574Z,99561.37
2018-03-27T15:18:53.858Z,99553.06
2018-03-27T15:21:21.126Z,99551.72
2018-03-27T15:23:47.430Z,99558.37
2018-03-27T15:26:13.721Z,99547.35
2018-03-27T15:28:40.772Z,99550.91
2018-03-27T15:31:07.093Z,99550.47
2018-03-27T15:33:34.955Z,99548.57
2018-03-27T15:36:01.229Z,99554.72
2018-03-27T15:38:28.278Z,99556.03
2018-03-27T15:40:54.550Z,99547.17
2018-03-27T15:43:20.895Z,99549.77
2018-03-27T15:45:47.987Z,99543.26
2018-03-27T15:48:14.354Z,99532.75
2018-03-27T15:50:40.724Z,99531.23
2018-03-27T15:53:07.050Z,99529.56
2018-03-27T15:55:34.810Z,99528.63
2018-03-27T15:58:02.610Z,99517.42
2018-03-27T16:00:28.947Z,99523.50
2018-03-27T16:02:55.639Z,99520.64
2018-03-27T16:05:21.913Z,99513.89
2018-03-27T16:07:48.963Z,99507.38
2018-03-27T16:10:15.300Z,99508.35
2018-03-27T16:12:43.782Z,99501.03
2018-03-27T16:15:10.492Z,99498.56
2018-03-27T16:17:37.531Z,99500.16
2018-03-27T16:20:03.827Z,99491.70
2018-03-27T16:22:30.118Z,99485.84
2018-03-27T16:24:57.241Z,99488.97
2018-03-27T16:27:23.628Z,99482.27
2018-03-27T16:29:49.968Z,99489.20
2018-03-27T16:32:16.264Z,99476.48
2018-03-27T16:34:43.318Z,99479.02
2018-03-27T16:37:09.730Z,99472.48
2018-03-27T16:39:36.857Z,99469.28
2018-03-27T16:42:03.186Z,99471.27
2018-03-27T16:44:29.526Z,99462.44
2018-03-27T16:46:55.837Z,99455.45
2018-03-27T16:49:22.164Z,99455.11
2018-03-27T16:51:48.758Z,99453.02
2018-03-27T16:54:15.088Z,99445.44
2018-03-27T16:56:42.146Z,99451.72
2018-03-27T16:59:08.818Z,99445.03
2018-03-27T17:01:35.209Z,99445.22
2018-03-27T17:04:01.547Z,99454.79
2018-03-27T17:06:27.849Z,99454.84
2018-03-27T17:08:54.180Z,99452.77
2018-03-27T17:11:20.482Z,99460.51
2018-03-27T17:13:47.078Z,99458.52
2018-03-27T17:16:13.388Z,99464.36
2018-03-27T17:18:40.456Z,99473.09
2018-03-27T17:21:06.860Z,99468.41
2018-03-27T17:23:34.209Z,99461.32
2018-03-27T17:26:00.507Z,99468.66
2018-03-27T17:28:26.859Z,99473.64
2018-03-27T17:30:53.203Z,99469.33
2018-03-27T17:33:19.557Z,99473.15
2018-03-27T17:35:46.628Z,99468.00
2018-03-27T17:38:12.951Z,99464.08
2018-03-27T17:40:39.341Z,99466.70
2018-03-27T17:43:05.673Z,99468.00
2018-03-27T17:45:32.050Z,99462.69
2018-03-27T17:47:58.346Z,99467.95
2018-03-27T17:50:24.707Z,99467.19
2018-03-27T17:52:51.378Z,99462.72
2018-03-27T17:55:17.640Z,99464.59
2018-03-27T17:57:43.948Z,99465.14
2018-03-27T18:00:10.206Z,99466.13
2018-03-27T18:02:36.587Z,99470.39
2018-03-27T18:05:03.006Z,99468.13
2018-03-27T18:07:29.316Z,99467.47
2018-03-27T18:09:56.383Z,99456.92
2018-03-27T18:12:22.844Z,99463.39
2018-03-27T18:14:49.246Z,99473.23
2018-03-27T18:17:15.989Z,99468.16
2018-03-27T18:19:42.319Z,99463.19
2018-03-27T18:22:08.650Z,99465.84
2018-03-27T18:24:34.952Z,99469.13
2018-03-27T18:27:02.033Z,99463.94
2018-03-27T18:29:28.362Z,99459.77
2018-03-27T18:31:54.796Z,99463.25
2018-03-27T18:34:21.845Z,99452.61
2018-03-27T18:36:48.146Z,99456.22
2018-03-27T18:39:14.463Z,99450.39
2018-03-27T18:41:40.819Z,99450.02
2018-03-27T18:44:08.098Z,99451.83
2018-03-27T18:46:34.398Z,99438.48
2018-03-27T18:49:00.720Z,99447.91
2018-03-27T18:51:27.008Z,99449.06
2018-03-27T18:53:53.290Z,99437.48
2018-03-27T18:56:20.479Z,99443.80
2018-03-27T18:58:46.753Z,99448.38
2018-03-27T19:01:13.123Z,99452.56
2018-03-27T19:03:39.462Z,99452.84
2018-03-27T19:06:05.787Z,99454.97
2018-03-27T19:08:32.063Z,99460.10
2018-03-27T19:10:58.562Z,99453.56
2018-03-27T19:13:24.923Z,99456.42
2018-03-27T19:15:51.291Z,99453.08
2018-03-27T19:18:18.326Z,99456.41
2018-03-27T19:20:45.413Z,99452.77
2018-03-27T19:23:11.816Z,99455.33
2018-03-27T19:25:38.145Z,99452.87
2018-03-27T19:28:05.169Z,99452.37
2018-03-27T19:30:31.543Z,99446.03
2018-03-27T19:38:42.578Z,99444.45
2018-03-27T19:41:12.927Z,99440.58
2018-03-27T19:43:39.754Z,99440.02
2018-03-27T19:46:06.147Z,99435.53
2018-03-27T19:48:32.469Z,99432.52
2018-03-27T19:50:59.497Z,99427.17
2018-03-27T19:53:26.319Z,99423.20
2018-03-27T19:55:52.669Z,99414.55
2018-03-27T19:58:19.335Z,99416.28
2018-03-27T20:00:45.630Z,99409.95
2018-03-27T20:03:11.978Z,99414.15
2018-03-27T20:05:38.307Z,99415.73
2018-03-27T20:08:04.661Z,99410.52
2018-03-27T20:10:31.058Z,99413.83
2018-03-27T20:12:57.468Z,99415.32
2018-03-27T20:15:23.891Z,99418.72
2018-03-27T20:17:51.064Z,99418.34
2018-03-27T20:20:17.476Z,99420.21
2018-03-27T20:22:44.318Z,99415.37
2018-03-27T20:25:11.210Z,99415.84
2018-03-27T20:27:37.534Z,99416.80
2018-03-27T20:30:04.729Z,99408.48
2018-03-27T20:32:31.759Z,99416.06
2018-03-27T20:34:58.052Z,99406.09
2018-03-27T20:37:24.383Z,99403.77
2018-03-27T20:39:50.666Z,99401.08
2018-03-27T20:42:17.899Z,99403.49
2018-03-27T20:44:44.346Z,99404.38
2018-03-27T20:47:11.378Z,99395.95
2018-03-27T20:49:37.704Z,99388.28
2018-03-27T20:52:04.006Z,99388.23
2018-03-27T20:54:30.352Z,99387.55
2018-03-27T20:56:56.659Z,99378.38
2018-03-27T20:59:23.247Z,99377.53
2018-03-27T21:01:49.577Z,99368.64
2018-03-27T21:04:15.902Z,99364.05
2018-03-27T21:06:42.222Z,99368.37
2018-03-27T21:09:08.518Z,99358.59
2018-03-27T21:11:34.998Z,99359.67
2018-03-27T21:14:01.281Z,99359.72
2018-03-27T21:16:27.604Z,99361.49
2018-03-27T21:18:53.902Z,99359.67
2018-03-27T21:21:20.173Z,99348.18
2018-03-27T21:23:46.502Z,99344.74
2018-03-27T21:26:12.847Z,99348.42
2018-03-27T21:28:39.125Z,99343.16
2018-03-27T21:31:05.420Z,99331.02
2018-03-27T21:33:31.684Z,99322.37
2018-03-27T21:35:58.760Z,99326.66
2018-03-27T21:38:25.099Z,99330.14
2018-03-27T21:40:51.367Z,99324.80
2018-03-27T21:43:17.675Z,99324.32
2018-03-27T21:45:44.944Z,99318.13
2018-03-27T21:48:11.273Z,99319.05
2018-03-27T21:50:37.638Z,99315.23
2018-03-27T21:53:03.972Z,99313.36
2018-03-27T21:55:30.988Z,99309.15
2018-03-27T21:57:57.316Z,99305.05
2018-03-27T22:00:23.676Z,99297.47
2018-03-27T22:02:50.045Z,99292.98
2018-03-27T22:05:16.407Z,99289.55
2018-03-27T22:07:42.757Z,99287.98
2018-03-27T22:10:09.132Z,99284.91
2018-03-27T22:12:35.469Z,99288.84
2018-03-27T22:15:01.765Z,99284.22
2018-03-27T22:17:28.045Z,99276.73
2018-03-27T22:19:54.359Z,99277.89
2018-03-27T22:22:21.410Z,99272.78
2018-03-27T22:24:47.742Z,99272.91
2018-03-27T22:27:14.074Z,99267.48
2018-03-27T22:29:40.405Z,99266.13
2018-03-27T22:32:06.762Z,99259.34
2018-03-27T22:34:33.106Z,99260.31
2018-03-27T22:36:59.380Z,99258.53
2018-03-27T22:39:26.672Z,99256.89
2018-03-27T22:41:52.988Z,99258.61
2018-03-27T22:44:19.316Z,99254.53
2018-03-27T22:46:45.634Z,99254.06
2018-03-27T22:49:13.737Z,99248.72
2018-03-27T22:51:40.072Z,99245.60
2018-03-27T22:54:06.380Z,99242.31
2018-03-27T22:56:32.700Z,99237.62
2018-03-27T22:58:59.758Z,99240.02
2018-03-27T23:01:26.137Z,99245.18
2018-03-27T23:03:52.418Z,99239.30
2018-03-27T23:06:18.760Z,99236.32
2018-03-27T23:08:45.041Z,99231.78
2018-03-27T23:11:11.341Z,99233.55
2018-03-27T23:13:37.911Z,99230.33
2018-03-27T23:16:04.243Z,99222.28
2018-03-27T23:18:30.510Z,99225.59
2018-03-27T23:20:56.849Z,99219.69
2018-03-27T23:23:23.242Z,99222.33
2018-03-27T23:25:50.324Z,99217.27
2018-03-27T23:28:16.654Z,99221.73
2018-03-27T23:30:42.960Z,99216.48
2018-03-27T23:33:10.019Z,99217.37
2018-03-27T23:35:37.088Z,99218.48
2018-03-27T23:38:03.412Z,99218.75
2018-03-27T23:40:29.827Z,99211.19
2018-03-27T23:42:56.910Z,99218.84
2018-03-27T23:45:23.250Z,99214.94
2018-03-27T23:47:49.560Z,99216.53
2018-03-27T23:50:15.887Z,99210.06
2018-03-27T23:52:42.241Z,99212.53
2018-03-27T23:55:08.567Z,99212.07
2018-03-27T23:57:35.085Z,99215.87
